Novy Oskol, Russia
Current Conditions -  °F | °C
As of 8:30 AM on Saturday 20 Dec 2014 (Local Time) from UUOB Reporting Station
Light Rain Light Rain  
Wind Chill: 24°   Ceiling: 400
Heat Index: 34°   Visibility: 1mi
Dew Point: 34°   Wind: 13mph
Humidity: 100%   Direction: 200°SSW
Pressure: 29.74"   Gusts: NA
Location:  50.75°N, 37.87°E
Report Text: UUOB 200530Z 20006MPS 1600 -RA BR OVC004 01/01 Q1007 11290055NOSIG
Loading
Personal Weather Stations






























Interactive Weather Map New forecast layout! Learn more

10-Day Weather Forecast

Advertisements
Track Severe Weather on mobile